Time;durP1;ratioP1;P1;durP2;ratioP2;P2;SDS_P1;SDS_P2;PMS_P1;PMS_P2;Temp;Humidity;BMP_temperature;BMP_pressure;BME280_temperature;BME280_humidity;BME280_pressure;Samples;Min_cycle;Max_cycle;Signal;HPM_P1;HPM_P2
2023/07/14 00:01:58;;;;;;;8.90;3.47;;;16.20;82.60;;;;;;5057209;28;20934;-68
2023/07/14 00:04:31;;;;;;;11.67;5.07;;;16.10;82.50;;;;;;5057155;28;20795;-67
2023/07/14 00:06:58;;;;;;;7.63;3.30;;;16.00;82.50;;;;;;5057683;28;20803;-68
2023/07/14 00:09:27;;;;;;;8.50;4.50;;;16.00;82.40;;;;;;5057554;28;20534;-68
2023/07/14 00:11:56;;;;;;;9.70;3.77;;;15.90;82.30;;;;;;5057248;28;20443;-68
2023/07/14 00:14:23;;;;;;;8.20;4.60;;;15.80;82.20;;;;;;5057109;28;20477;-68
2023/07/14 00:16:52;;;;;;;9.07;6.47;;;15.60;90.00;;;;;;5057949;28;20456;-68
2023/07/14 00:19:20;;;;;;;9.93;8.80;;;15.50;93.20;;;;;;5057283;28;20455;-68
2023/07/14 00:21:47;;;;;;;12.63;11.40;;;15.40;95.70;;;;;;5057589;28;20458;-68
2023/07/14 00:24:17;;;;;;;20.50;19.07;;;15.20;96.50;;;;;;5056811;28;20550;-68
2023/07/14 00:26:47;;;;;;;25.07;23.67;;;15.10;99.70;;;;;;5057212;28;20458;-68
2023/07/14 00:29:34;;;;;;;38.57;36.67;;;14.90;99.90;;;;;;5057395;28;20457;-68
2023/07/14 00:32:03;;;;;;;43.37;41.20;;;14.90;99.70;;;;;;5056850;28;20439;-68
2023/07/14 00:34:30;;;;;;;44.13;41.80;;;15.00;99.70;;;;;;5056484;28;20451;-68
2023/07/14 00:36:57;;;;;;;39.97;37.80;;;14.90;99.70;;;;;;5056593;28;20521;-69
2023/07/14 00:39:24;;;;;;;34.30;32.70;;;14.80;99.90;;;;;;5056588;28;20451;-68
2023/07/14 00:41:51;;;;;;;32.53;30.60;;;14.90;99.70;;;;;;5056692;28;20451;-68
2023/07/14 00:44:18;;;;;;;21.70;20.00;;;14.90;99.70;;;;;;5056453;28;20819;-68
2023/07/14 00:46:46;;;;;;;15.37;14.30;;;15.00;96.80;;;;;;5056842;28;20473;-68
2023/07/14 00:49:21;;;;;;;12.23;11.23;;;15.20;93.10;;;;;;5056800;28;20497;-68
2023/07/14 00:51:48;;;;;;;11.80;9.73;;;15.40;93.20;;;;;;5056197;28;20925;-68
2023/07/14 00:54:28;;;;;;;10.77;8.23;;;15.50;92.20;;;;;;5056154;28;20517;-68
2023/07/14 00:56:56;;;;;;;12.40;6.77;;;15.60;91.90;;;;;;5056712;28;20440;-68
2023/07/14 00:59:29;;;;;;;10.40;5.50;;;15.70;89.90;;;;;;5056657;28;20456;-68
2023/07/14 01:02:20;;;;;;;9.23;6.90;;;15.70;89.90;;;;;;5056075;28;20427;-68
2023/07/14 01:04:51;;;;;;;11.13;7.10;;;15.70;91.60;;;;;;5055928;28;20947;-68
2023/07/14 01:07:22;;;;;;;11.63;6.43;;;15.70;92.00;;;;;;5056453;28;20485;-68
2023/07/14 01:09:52;;;;;;;11.10;6.17;;;15.70;90.10;;;;;;5057211;28;20439;-68
2023/07/14 01:12:21;;;;;;;8.83;6.63;;;15.70;89.90;;;;;;5055602;28;20451;-67
2023/07/14 01:14:51;;;;;;;8.73;7.70;;;15.70;92.50;;;;;;5055656;28;20455;-68
2023/07/14 01:17:19;;;;;;;10.87;8.87;;;15.70;93.30;;;;;;5056269;28;20451;-68
2023/07/14 01:19:52;;;;;;;9.53;8.50;;;15.70;93.30;;;;;;5055881;28;20547;-68
2023/07/14 01:22:28;;;;;;;17.97;8.33;;;15.70;93.30;;;;;;5055838;28;20439;-68
2023/07/14 01:25:05;;;;;;;10.43;9.53;;;15.70;93.40;;;;;;5056064;28;20926;-68
2023/07/14 01:27:33;;;;;;;17.03;11.13;;;15.70;93.30;;;;;;5056170;28;20845;-68
2023/07/14 01:30:01;;;;;;;13.13;11.50;;;15.70;93.30;;;;;;5056037;28;20448;-68
2023/07/14 01:32:35;;;;;;;13.77;12.37;;;15.80;93.40;;;;;;5055538;28;20451;-68
2023/07/14 01:35:05;;;;;;;12.37;11.03;;;15.80;93.40;;;;;;5055461;28;20526;-68
2023/07/14 01:37:35;;;;;;;12.87;11.53;;;15.80;93.40;;;;;;5055585;28;20487;-68
2023/07/14 01:40:05;;;;;;;11.83;9.47;;;15.80;93.40;;;;;;5055555;28;20463;-68
2023/07/14 01:42:34;;;;;;;10.53;9.50;;;15.70;93.30;;;;;;5055146;28;20458;-68
2023/07/14 01:45:01;;;;;;;11.00;9.23;;;15.70;93.30;;;;;;5055277;28;20455;-68
2023/07/14 01:47:30;;;;;;;12.93;11.70;;;15.70;93.30;;;;;;5055761;28;20858;-68
2023/07/14 01:50:00;;;;;;;11.50;10.40;;;15.60;94.50;;;;;;5055689;28;20455;-68
2023/07/14 01:52:31;;;;;;;11.03;10.13;;;15.50;93.30;;;;;;5055012;28;20479;-68
2023/07/14 01:55:06;;;;;;;13.67;12.57;;;15.40;93.60;;;;;;5055387;28;20530;-68
2023/07/14 01:57:36;;;;;;;13.83;12.67;;;15.40;94.80;;;;;;5055618;28;20781;-68
2023/07/14 02:00:09;;;;;;;14.20;12.97;;;15.30;95.40;;;;;;5055440;28;20450;-68
2023/07/14 02:02:37;;;;;;;13.00;10.80;;;15.20;96.30;;;;;;5054862;28;20447;-68
2023/07/14 02:05:15;;;;;;;12.40;11.33;;;15.20;95.30;;;;;;5055203;28;20460;-68
2023/07/14 02:07:42;;;;;;;11.60;10.60;;;15.20;94.80;;;;;;5055313;28;20470;-68
2023/07/14 02:10:13;;;;;;;15.23;13.80;;;15.20;94.80;;;;;;5055290;28;20451;-68
2023/07/14 02:12:46;;;;;;;12.50;11.60;;;15.10;95.40;;;;;;5055199;28;20921;-68
2023/07/14 02:15:17;;;;;;;13.67;12.50;;;15.10;96.40;;;;;;5055229;28;20440;-68
2023/07/14 02:17:45;;;;;;;13.63;12.40;;;15.10;95.20;;;;;;5055662;28;20538;-68
2023/07/14 02:20:17;;;;;;;13.70;12.30;;;15.10;94.80;;;;;;5054513;28;20463;-68
2023/07/14 02:22:46;;;;;;;13.33;12.33;;;15.10;94.60;;;;;;5054510;28;20440;-68
2023/07/14 02:25:17;;;;;;;13.40;12.30;;;15.00;95.40;;;;;;5054932;28;20458;-68
2023/07/14 02:27:46;;;;;;;13.73;12.70;;;14.90;96.30;;;;;;5054664;28;20907;-68
2023/07/14 02:30:15;;;;;;;17.43;15.07;;;14.80;96.40;;;;;;5054611;28;20460;-68
2023/07/14 02:32:46;;;;;;;22.73;21.13;;;14.80;99.40;;;;;;5054162;28;20455;-68
2023/07/14 02:35:19;;;;;;;24.30;22.73;;;14.70;99.60;;;;;;5054719;28;20450;-68
2023/07/14 02:38:03;;;;;;;27.07;25.30;;;14.70;99.60;;;;;;5055038;28;20442;-68
2023/07/14 02:40:33;;;;;;;27.47;25.97;;;14.70;99.60;;;;;;5054637;28;20456;-68
2023/07/14 02:43:04;;;;;;;26.07;24.30;;;14.70;99.60;;;;;;5053947;28;20927;-67
2023/07/14 02:45:33;;;;;;;24.97;23.13;;;14.70;99.60;;;;;;5054654;28;20447;-68
2023/07/14 02:48:02;;;;;;;25.43;23.93;;;14.70;99.90;;;;;;5054252;28;20452;-68
2023/07/14 02:50:29;;;;;;;25.40;23.60;;;14.60;99.50;;;;;;5054440;28;20451;-68
2023/07/14 02:52:56;;;;;;;28.53;26.93;;;14.60;99.50;;;;;;5053517;28;20455;-68
2023/07/14 02:55:23;;;;;;;32.87;31.17;;;14.50;99.60;;;;;;5054394;28;20813;-68
2023/07/14 02:57:50;;;;;;;36.50;34.90;;;14.50;99.80;;;;;;5054031;28;20459;-68
2023/07/14 03:00:19;;;;;;;38.50;36.40;;;14.40;99.40;;;;;;5053970;28;20462;-68
2023/07/14 03:02:46;;;;;;;44.70;42.10;;;14.40;99.40;;;;;;5053549;28;20458;-68
2023/07/14 03:05:12;;;;;;;42.93;40.77;;;14.40;99.90;;;;;;5054056;28;20455;-68
2023/07/14 03:07:40;;;;;;;47.20;45.17;;;14.40;99.50;;;;;;5054168;28;20535;-68
2023/07/14 03:10:09;;;;;;;51.73;49.33;;;14.30;99.90;;;;;;5054139;28;20451;-67
2023/07/14 03:12:36;;;;;;;51.87;49.37;;;14.20;99.90;;;;;;5053446;28;20470;-68
2023/07/14 03:15:04;;;;;;;60.73;58.03;;;14.10;99.90;;;;;;5053918;28;20462;-68
2023/07/14 03:17:33;;;;;;;68.57;65.60;;;14.10;99.90;;;;;;5054030;28;20455;-68
2023/07/14 03:20:00;;;;;;;60.17;57.63;;;14.10;99.90;;;;;;5053714;28;20455;-68
2023/07/14 03:22:30;;;;;;;40.37;38.27;;;14.10;99.90;;;;;;5053126;28;20482;-68
2023/07/14 03:24:58;;;;;;;56.03;53.30;;;13.90;99.80;;;;;;5053438;28;20447;-68
2023/07/14 03:27:25;;;;;;;79.63;76.53;;;13.70;99.90;;;;;;5053895;28;20451;-68
2023/07/14 03:29:51;;;;;;;126.20;121.47;;;13.60;99.90;;;;;;5053155;28;20452;-67
2023/07/14 03:32:18;;;;;;;148.57;143.10;;;13.40;99.90;;;;;;5052926;28;20443;-68
2023/07/14 03:34:47;;;;;;;171.80;164.63;;;13.30;99.90;;;;;;5053442;28;20447;-68
2023/07/14 03:37:14;;;;;;;211.03;202.63;;;13.20;99.90;;;;;;5053394;28;20467;-67
2023/07/14 03:39:41;;;;;;;228.27;219.60;;;13.10;99.90;;;;;;5053741;28;20458;-68
2023/07/14 03:42:08;;;;;;;251.83;241.93;;;13.00;99.90;;;;;;5052983;28;20475;-67
2023/07/14 03:44:34;;;;;;;273.70;262.10;;;12.90;99.90;;;;;;5053442;28;20481;-68
2023/07/14 03:47:02;;;;;;;273.77;262.47;;;12.90;99.90;;;;;;5053823;28;20874;-67
2023/07/14 03:49:29;;;;;;;278.10;266.43;;;12.80;99.90;;;;;;5053893;28;20822;-67
2023/07/14 03:51:58;;;;;;;287.43;274.50;;;12.70;99.90;;;;;;5053766;28;20454;-67
2023/07/14 03:54:25;;;;;;;307.23;292.77;;;12.60;99.90;;;;;;5052749;28;20462;-67
2023/07/14 03:56:53;;;;;;;324.67;309.47;;;12.60;99.90;;;;;;5053536;28;20451;-67
2023/07/14 03:59:21;;;;;;;322.97;307.63;;;12.60;99.90;;;;;;5053204;28;21004;-67
2023/07/14 04:01:48;;;;;;;348.20;331.60;;;12.60;99.90;;;;;;5052944;28;21014;-67
2023/07/14 04:04:15;;;;;;;357.83;340.53;;;12.50;99.90;;;;;;5052638;28;20456;-67
2023/07/14 04:06:42;;;;;;;369.50;351.57;;;12.50;99.90;;;;;;5053478;28;20451;-67
2023/07/14 04:09:10;;;;;;;369.37;351.27;;;12.50;99.90;;;;;;5053478;28;20455;-67
2023/07/14 04:11:37;;;;;;;378.50;359.40;;;12.50;99.90;;;;;;5053381;28;20447;-68
2023/07/14 04:14:05;;;;;;;399.60;379.30;;;12.50;99.90;;;;;;5052866;28;20458;-68
2023/07/14 04:16:32;;;;;;;376.67;357.63;;;12.50;99.90;;;;;;5053378;28;20456;-68
2023/07/14 04:18:59;;;;;;;421.07;398.63;;;12.40;99.90;;;;;;5053386;28;20837;-68
2023/07/14 04:21:27;;;;;;;502.33;473.90;;;12.40;99.90;;;;;;5053261;28;20485;-68
2023/07/14 04:23:55;;;;;;;510.63;481.37;;;12.50;99.90;;;;;;5052736;28;20813;-67
2023/07/14 04:26:24;;;;;;;489.13;461.60;;;12.60;99.90;;;;;;5053255;28;20456;-67
2023/07/14 04:28:51;;;;;;;450.87;426.20;;;12.60;99.90;;;;;;5052925;28;20466;-68
2023/07/14 04:31:18;;;;;;;421.83;397.90;;;12.70;99.90;;;;;;5053265;28;20455;-67
2023/07/14 04:33:46;;;;;;;390.17;369.63;;;12.70;99.90;;;;;;5052562;28;20884;-68
2023/07/14 04:36:14;;;;;;;405.43;384.37;;;12.70;99.90;;;;;;5052901;28;20459;-68
2023/07/14 04:38:42;;;;;;;378.67;359.57;;;12.80;99.90;;;;;;5053121;28;20458;-68
2023/07/14 04:41:12;;;;;;;379.17;359.57;;;12.80;99.90;;;;;;5053047;28;20481;-68
2023/07/14 04:43:41;;;;;;;376.20;357.47;;;12.90;99.90;;;;;;5056240;28;20465;-68
2023/07/14 04:46:09;;;;;;;364.13;344.23;;;13.00;99.90;;;;;;5057121;28;20547;-68
2023/07/14 04:48:36;;;;;;;353.10;335.40;;;13.00;99.90;;;;;;5056512;28;20459;-67
2023/07/14 04:51:03;;;;;;;356.57;338.83;;;13.10;99.90;;;;;;5056449;28;20452;-68
2023/07/14 04:53:30;;;;;;;341.97;325.27;;;13.10;99.90;;;;;;5055957;28;20881;-68
2023/07/14 04:55:56;;;;;;;316.53;300.97;;;13.20;99.90;;;;;;5056349;28;20462;-68
2023/07/14 04:58:23;;;;;;;310.80;295.97;;;13.40;99.90;;;;;;5056662;28;20868;-68
2023/07/14 05:00:52;;;;;;;295.50;281.93;;;13.40;99.90;;;;;;5056527;28;20458;-68
2023/07/14 05:03:19;;;;;;;301.47;287.10;;;13.50;99.90;;;;;;5055679;28;20455;-68
2023/07/14 05:05:46;;;;;;;302.03;287.83;;;13.60;99.90;;;;;;5056527;28;20460;-68
2023/07/14 05:08:13;;;;;;;304.33;289.83;;;13.80;99.90;;;;;;5056496;28;20456;-68
2023/07/14 05:10:40;;;;;;;288.70;275.40;;;13.90;99.90;;;;;;5056383;28;20452;-68
2023/07/14 05:13:07;;;;;;;294.73;280.80;;;14.00;99.90;;;;;;5059495;28;20973;-68
2023/07/14 05:15:34;;;;;;;294.70;281.30;;;14.10;99.90;;;;;;5076355;28;20508;-68
2023/07/14 05:18:02;;;;;;;278.43;266.03;;;14.20;99.90;;;;;;5076291;28;20542;-68
2023/07/14 05:20:29;;;;;;;252.93;242.20;;;14.20;99.90;;;;;;5076055;28;20455;-74
2023/07/14 05:22:56;;;;;;;238.93;228.00;;;14.30;99.90;;;;;;5074949;28;20474;-74
2023/07/14 05:25:24;;;;;;;220.60;211.40;;;14.50;99.90;;;;;;5076970;28;20462;-75
2023/07/14 05:27:50;;;;;;;220.07;211.17;;;14.50;99.90;;;;;;5075847;28;20455;-75
2023/07/14 05:30:21;;;;;;;194.23;186.43;;;14.60;99.90;;;;;;5075741;28;20457;-75
2023/07/14 05:32:49;;;;;;;184.57;177.57;;;14.70;99.90;;;;;;5075358;28;20455;-75
2023/07/14 05:35:18;;;;;;;168.07;161.47;;;14.70;99.90;;;;;;5075962;28;20508;-75
2023/07/14 05:37:46;;;;;;;152.57;146.47;;;14.80;99.90;;;;;;5075688;28;20940;-75
2023/07/14 05:40:14;;;;;;;110.27;105.63;;;15.10;99.90;;;;;;5075600;28;20447;-75
2023/07/14 05:42:42;;;;;;;30.37;28.57;;;15.60;99.90;;;;;;5074914;28;20475;-75
2023/07/14 05:45:10;;;;;;;8.90;4.97;;;16.20;99.90;;;;;;5075747;28;20493;-76
2023/07/14 05:47:38;;;;;;;6.30;4.10;;;17.00;96.40;;;;;;5075468;28;21029;-76
2023/07/14 05:50:07;;;;;;;11.03;3.73;;;17.70;92.90;;;;;;5075733;28;20455;-75
2023/07/14 05:52:35;;;;;;;8.03;4.40;;;18.30;84.50;;;;;;5074806;28;20529;-76
2023/07/14 05:55:03;;;;;;;6.60;3.53;;;19.00;77.20;;;;;;5074639;28;20810;-76
2023/07/14 05:57:30;;;;;;;8.30;3.37;;;19.60;72.10;;;;;;5075551;28;20541;-75
2023/07/14 05:59:57;;;;;;;6.83;3.17;;;20.30;70.40;;;;;;5075233;28;20455;-75
2023/07/14 06:02:25;;;;;;;16.30;3.63;;;20.70;62.60;;;;;;5074815;28;20470;-75
2023/07/14 06:04:54;;;;;;;9.80;3.67;;;20.90;62.70;;;;;;5075076;28;20450;-75
2023/07/14 06:07:21;;;;;;;11.37;3.40;;;21.40;60.30;;;;;;5075053;28;20451;-75
2023/07/14 06:09:50;;;;;;;8.57;3.10;;;21.70;54.80;;;;;;5074956;28;20934;-75
2023/07/14 06:12:17;;;;;;;10.53;3.03;;;22.20;55.20;;;;;;5074838;28;20447;-75
2023/07/14 06:14:43;;;;;;;9.53;3.60;;;22.50;47.10;;;;;;5074894;28;20512;-76
2023/07/14 06:17:13;;;;;;;5.57;2.50;;;22.80;47.10;;;;;;5075259;28;20961;-75
2023/07/14 06:19:39;;;;;;;7.27;3.23;;;22.90;43.90;;;;;;5075201;28;20938;-75
2023/07/14 06:22:07;;;;;;;6.17;2.97;;;23.00;47.20;;;;;;5074440;28;20474;-76
2023/07/14 06:24:36;;;;;;;7.67;2.63;;;22.80;47.00;;;;;;5074524;28;20811;-75
2023/07/14 06:27:06;;;;;;;7.83;2.97;;;22.90;44.20;;;;;;5075019;28;20977;-74
2023/07/14 06:29:33;;;;;;;6.97;2.80;;;22.70;37.80;;;;;;5074567;28;20455;-75
2023/07/14 06:32:00;;;;;;;7.27;2.67;;;22.60;41.40;;;;;;5074588;28;20486;-76
2023/07/14 06:34:27;;;;;;;8.53;3.30;;;22.50;41.50;;;;;;5074333;28;20469;-75
2023/07/14 06:36:54;;;;;;;7.63;2.97;;;22.50;43.30;;;;;;5074637;28;20897;-74
2023/07/14 06:39:21;;;;;;;6.60;2.63;;;22.40;37.60;;;;;;5074634;28;20968;-74
2023/07/14 06:41:49;;;;;;;7.90;2.00;;;22.50;37.60;;;;;;5074365;28;20894;-74
2023/07/14 06:44:17;;;;;;;9.47;2.70;;;22.40;37.50;;;;;;5074359;28;20458;-74
2023/07/14 06:46:44;;;;;;;9.47;2.57;;;22.50;38.50;;;;;;5074605;28;20878;-75
2023/07/14 06:49:12;;;;;;;7.43;2.63;;;22.80;38.00;;;;;;5074533;28;20483;-74
2023/07/14 06:51:42;;;;;;;5.77;2.57;;;22.90;38.00;;;;;;5074399;28;20512;-74
2023/07/14 06:54:09;;;;;;;15.27;2.67;;;23.30;38.40;;;;;;5073888;28;20537;-73
2023/07/14 06:56:36;;;;;;;7.17;2.80;;;23.60;29.60;;;;;;5074093;28;20454;-73
2023/07/14 06:59:03;;;;;;;7.43;2.33;;;23.70;29.70;;;;;;5074054;28;21004;-74
2023/07/14 07:01:31;;;;;;;7.97;2.80;;;23.90;29.80;;;;;;5074866;28;20457;-74
2023/07/14 07:03:58;;;;;;;6.67;2.77;;;24.20;30.00;;;;;;5073555;28;20922;-76
2023/07/14 07:06:25;;;;;;;7.50;2.50;;;24.20;22.90;;;;;;5073783;28;20451;-75
2023/07/14 07:08:52;;;;;;;8.17;2.77;;;24.20;26.30;;;;;;5074210;28;20461;-75
2023/07/14 07:11:19;;;;;;;7.50;3.23;;;24.20;22.70;;;;;;5073845;28;20968;-76
2023/07/14 07:13:46;;;;;;;8.00;2.70;;;24.40;22.90;;;;;;5072445;28;20452;-76
2023/07/14 07:16:12;;;;;;;8.50;2.33;;;24.80;23.20;;;;;;5073796;28;20938;-76
2023/07/14 07:18:41;;;;;;;6.40;2.53;;;25.20;23.40;;;;;;5074086;28;20451;-75
2023/07/14 07:21:12;;;;;;;6.07;2.60;;;25.30;23.40;;;;;;5073780;28;20486;-75
2023/07/14 07:23:39;;;;;;;7.13;2.53;;;25.60;19.80;;;;;;5072613;28;20473;-76
2023/07/14 07:26:06;;;;;;;7.60;3.03;;;25.40;19.10;;;;;;5074280;28;20541;-76
2023/07/14 07:28:33;;;;;;;6.40;2.60;;;25.20;15.90;;;;;;5073606;28;21056;-76
2023/07/14 07:31:08;;;;;;;9.48;2.60;;;25.20;15.90;;;;;;5073492;28;20606;-68
2023/07/14 07:33:36;;;;;;;7.83;2.60;;;25.20;15.90;;;;;;5072822;28;20188;-68
2023/07/14 07:36:14;;;;;;;7.80;2.57;;;25.20;15.90;;;;;;5073567;28;20455;-69
2023/07/14 07:38:46;;;;;;;6.60;2.20;;;25.10;15.80;;;;;;5074089;28;20439;-68
2023/07/14 07:41:14;;;;;;;7.63;2.20;;;25.20;15.90;;;;;;5074450;28;20435;-68
2023/07/14 07:43:41;;;;;;;8.40;2.67;;;25.40;16.00;;;;;;5072753;28;20828;-68
2023/07/14 07:46:08;;;;;;;7.77;2.60;;;25.40;16.00;;;;;;5073440;28;20486;-68
2023/07/14 07:48:36;;;;;;;7.93;2.03;;;25.50;13.30;;;;;;5073708;28;20537;-68
2023/07/14 07:51:06;;;;;;;7.57;2.10;;;25.70;8.50;;;;;;5073419;28;20999;-68
2023/07/14 07:53:33;;;;;;;6.57;2.40;;;26.00;8.70;;;;;;5072894;28;20453;-68
2023/07/14 07:56:01;;;;;;;8.80;2.63;;;25.90;8.60;;;;;;5073325;28;20457;-68
2023/07/14 07:58:28;;;;;;;10.53;2.70;;;25.60;8.50;;;;;;5073561;28;20450;-68
2023/07/14 08:00:56;;;;;;;11.90;2.80;;;25.20;8.20;;;;;;5073261;28;20450;-68
2023/07/14 08:03:23;;;;;;;9.63;2.83;;;25.20;13.30;;;;;;5072910;28;20475;-68
2023/07/14 08:05:50;;;;;;;6.07;1.93;;;25.00;14.00;;;;;;5074337;28;20457;-68
2023/07/14 08:08:19;;;;;;;8.37;2.23;;;25.20;15.40;;;;;;5073518;28;20789;-68
2023/07/14 08:10:46;;;;;;;7.20;2.23;;;25.10;8.20;;;;;;5073224;28;20454;-68
2023/07/14 08:13:15;;;;;;;8.97;2.40;;;25.30;8.30;;;;;;5072685;28;20447;-68
2023/07/14 08:15:42;;;;;;;6.43;2.47;;;25.60;11.10;;;;;;5073442;28;20451;-68
2023/07/14 08:18:09;;;;;;;7.43;2.63;;;26.00;8.70;;;;;;5076612;28;20450;-68
2023/07/14 08:20:37;;;;;;;5.47;1.90;;;26.20;6.50;;;;;;5077437;28;20451;-68
2023/07/14 08:23:04;;;;;;;7.10;2.70;;;26.30;1.00;;;;;;5076482;28;20484;-68
2023/07/14 08:25:33;;;;;;;5.57;2.03;;;26.90;1.40;;;;;;5077327;28;20451;-68
2023/07/14 08:28:00;;;;;;;6.60;1.97;;;27.00;2.40;;;;;;5077261;28;20458;-68
2023/07/14 08:30:27;;;;;;;9.00;2.00;;;26.80;1.30;;;;;;5076925;28;20972;-68
2023/07/14 08:32:54;;;;;;;8.07;2.10;;;26.50;1.10;;;;;;5076349;28;20873;-68
2023/07/14 08:35:21;;;;;;;6.73;1.87;;;26.40;1.00;;;;;;5076711;28;20450;-68
2023/07/14 08:37:49;;;;;;;6.30;1.83;;;26.50;1.10;;;;;;5077127;28;20439;-68
2023/07/14 08:40:20;;;;;;;7.73;2.47;;;26.90;1.30;;;;;;5076754;28;20451;-67
2023/07/14 08:43:09;;;;;;;16.30;2.40;;;26.90;1.30;;;;;;5075874;28;20471;-68
2023/07/14 08:45:38;;;;;;;5.60;2.10;;;26.80;1.30;;;;;;5077001;28;20439;-68
2023/07/14 08:48:18;;;;;;;9.00;3.17;;;26.90;1.30;;;;;;5076594;28;20455;-68
2023/07/14 08:50:47;;;;;;;5.30;1.90;;;26.40;1.00;;;;;;5076898;28;20449;-68
2023/07/14 08:53:20;;;;;;;7.00;2.50;;;26.50;1.10;;;;;;5076094;28;20644;-68
2023/07/14 08:55:47;;;;;;;6.80;2.17;;;26.60;1.10;;;;;;5076809;28;20499;-68
2023/07/14 08:58:22;;;;;;;6.40;2.57;;;27.00;1.40;;;;;;5076754;28;20472;-67
2023/07/14 09:01:03;;;;;;;7.40;2.50;;;26.60;1.80;;;;;;5076700;28;20525;-68
2023/07/14 09:03:37;;;;;;;10.07;2.90;;;26.60;1.10;;;;;;5075858;28;20467;-68
2023/07/14 09:06:24;;;;;;;7.30;2.57;;;27.10;2.10;;;;;;5076612;28;20438;-68
2023/07/14 09:08:52;;;;;;;8.37;2.60;;;27.10;1.40;;;;;;5077095;28;20764;-68
2023/07/14 09:11:43;;;;;;;10.47;2.37;;;27.20;1.50;;;;;;5076516;28;20484;-68
2023/07/14 09:14:33;;;;;;;6.13;2.30;;;27.20;1.00;;;;;;5076062;28;20457;-67
2023/07/14 09:17:10;;;;;;;12.20;2.60;;;27.20;1.00;;;;;;5076114;28;20439;-67
2023/07/14 09:19:55;;;;;;;6.30;2.60;;;26.70;1.00;;;;;;5076396;28;20417;-67
2023/07/14 09:22:30;;;;;;;5.87;2.10;;;26.80;1.20;;;;;;5075337;28;20925;-68
2023/07/14 09:25:08;;;;;;;7.32;2.60;;;27.20;1.00;;;;;;5074929;28;20465;-68
2023/07/14 09:27:35;;;;;;;7.70;2.80;;;28.10;1.00;;;;;;5075778;28;20184;-73
2023/07/14 09:30:14;;;;;;;7.53;3.80;;;28.40;1.00;;;;;;5075195;28;20451;-74
2023/07/14 09:32:43;;;;;;;7.50;2.67;;;28.50;1.00;;;;;;5074766;28;20435;-71
2023/07/14 09:35:17;;;;;;;6.10;2.38;;;28.70;1.00;;;;;;5075144;28;20477;-72
2023/07/14 09:37:48;;;;;;;7.60;2.37;;;29.10;1.00;;;;;;5075683;28;20184;-69
2023/07/14 09:40:19;;;;;;;7.23;2.63;;;29.50;1.00;;;;;;5075945;28;20530;-71
2023/07/14 09:42:49;;;;;;;6.00;2.33;;;29.40;1.00;;;;;;5074876;28;20536;-70
2023/07/14 09:45:20;;;;;;;6.93;2.83;;;30.00;1.00;;;;;;5076075;28;20792;-70
2023/07/14 09:47:57;;;;;;;8.10;2.60;;;30.70;1.00;;;;;;5075482;28;20522;-71
2023/07/14 09:50:25;;;;;;;14.63;2.87;;;30.90;1.00;;;;;;5075696;28;20414;-71
2023/07/14 09:52:58;;;;;;;5.83;2.37;;;31.20;1.00;;;;;;5074439;28;20453;-72
2023/07/14 09:55:26;;;;;;;6.50;2.33;;;30.90;1.00;;;;;;5075277;28;20429;-71
2023/07/14 09:57:55;;;;;;;10.60;4.30;;;30.60;1.00;;;;;;5075243;28;20490;-71
2023/07/14 10:00:26;;;;;;;8.00;2.97;;;30.30;1.00;;;;;;5075473;28;20451;-71
2023/07/14 10:03:06;;;;;;;5.80;2.27;;;30.80;1.00;;;;;;5073896;28;20478;-71
2023/07/14 10:05:48;;;;;;;7.83;3.60;;;30.70;1.00;;;;;;5075415;28;20926;-71
2023/07/14 10:08:30;;;;;;;10.20;2.70;;;31.50;1.00;;;;;;5075297;28;20445;-71
2023/07/14 10:10:59;;;;;;;8.00;2.23;;;31.50;1.00;;;;;;5075358;28;20851;-71
2023/07/14 10:13:32;;;;;;;8.00;2.70;;;31.90;1.00;;;;;;5074197;28;20421;-72
2023/07/14 10:16:08;;;;;;;6.73;2.60;;;31.50;1.00;;;;;;5075286;28;20435;-71
2023/07/14 10:18:48;;;;;;;7.17;3.03;;;30.50;1.00;;;;;;5075178;28;20462;-71
2023/07/14 10:21:23;;;;;;;11.67;2.90;;;29.90;1.00;;;;;;5075165;28;20796;-71
2023/07/14 10:24:04;;;;;;;8.03;2.70;;;29.50;1.00;;;;;;5074602;28;20478;-72
2023/07/14 10:26:34;;;;;;;7.20;2.67;;;29.40;1.00;;;;;;5074695;28;20537;-71
2023/07/14 10:29:04;;;;;;;6.20;2.43;;;29.40;1.00;;;;;;5074623;28;20515;-68
2023/07/14 10:31:42;;;;;;;5.97;2.10;;;29.10;1.00;;;;;;5074845;28;20439;-69
2023/07/14 10:34:24;;;;;;;8.57;2.37;;;29.10;1.00;;;;;;5074310;28;20434;-69
2023/07/14 10:36:54;;;;;;;9.20;2.90;;;29.40;1.00;;;;;;5074377;28;20469;-70
2023/07/14 10:39:32;;;;;;;5.77;2.17;;;29.00;1.00;;;;;;5073857;28;20486;-69
2023/07/14 10:42:00;;;;;;;8.83;3.10;;;29.10;1.00;;;;;;5074542;28;20448;-67
2023/07/14 10:44:31;;;;;;;8.13;2.50;;;29.70;1.00;;;;;;5074187;28;20478;-68
2023/07/14 10:47:03;;;;;;;8.33;2.37;;;30.00;1.00;;;;;;5074652;28;20457;-69
2023/07/14 10:49:35;;;;;;;10.90;4.27;;;30.80;1.00;;;;;;5074581;28;20443;-69
2023/07/14 10:52:07;;;;;;;8.57;3.17;;;31.10;1.00;;;;;;5073905;28;20441;-70
2023/07/14 10:54:49;;;;;;;9.20;2.57;;;29.60;1.00;;;;;;5074328;28;20467;-69
2023/07/14 10:57:34;;;;;;;7.30;2.40;;;29.10;1.00;;;;;;5074417;28;20451;-70
2023/07/14 11:00:15;;;;;;;6.57;2.40;;;29.40;1.00;;;;;;5074079;28;20848;-70
2023/07/14 11:02:51;;;;;;;6.53;2.03;;;30.70;1.00;;;;;;5073734;28;20455;-71
2023/07/14 11:05:22;;;;;;;6.23;2.43;;;31.20;1.00;;;;;;5074046;28;20928;-70
2023/07/14 11:07:50;;;;;;;8.43;2.77;;;31.80;1.00;;;;;;5073948;28;20455;-71
2023/07/14 11:10:26;;;;;;;7.60;2.20;;;31.90;1.00;;;;;;5073918;28;21024;-71
2023/07/14 11:12:58;;;;;;;7.57;2.60;;;31.90;1.00;;;;;;5072989;28;20445;-72
2023/07/14 11:15:31;;;;;;;5.80;2.40;;;32.50;1.00;;;;;;5073806;28;20446;-71
2023/07/14 11:18:08;;;;;;;5.60;2.10;;;33.10;1.00;;;;;;5073798;28;20629;-72
2023/07/14 11:20:42;;;;;;;6.07;2.50;;;33.30;1.00;;;;;;5073938;28;20409;-71
2023/07/14 11:23:26;;;;;;;7.23;2.20;;;32.80;1.00;;;;;;5073387;28;20463;-72
2023/07/14 11:26:00;;;;;;;5.93;2.30;;;33.60;1.00;;;;;;5074010;28;20434;-73
2023/07/14 11:28:37;;;;;;;6.80;3.30;;;34.10;1.00;;;;;;5073714;28;20443;-71
2023/07/14 11:31:22;;;;;;;5.57;2.10;;;33.90;1.00;;;;;;5073668;28;20940;-71
2023/07/14 11:34:12;;;;;;;4.93;2.00;;;33.80;1.00;;;;;;5072844;28;20435;-72
2023/07/14 11:36:51;;;;;;;9.37;2.53;;;33.50;1.00;;;;;;5073452;28;20462;-70
2023/07/14 11:39:29;;;;;;;6.60;2.50;;;33.30;1.00;;;;;;5073896;28;20802;-70
2023/07/14 11:41:56;;;;;;;6.07;2.43;;;33.50;1.00;;;;;;5073531;28;20446;-70
2023/07/14 11:44:23;;;;;;;6.90;2.50;;;34.10;1.00;;;;;;5073590;28;20474;-70
2023/07/14 11:46:51;;;;;;;6.13;2.40;;;34.40;1.00;;;;;;5073211;28;20939;-70
2023/07/14 11:49:33;;;;;;;7.43;2.80;;;34.80;1.00;;;;;;5073245;28;20541;-71
2023/07/14 11:52:11;;;;;;;8.57;2.70;;;34.50;1.00;;;;;;5072703;28;20531;-72
2023/07/14 11:54:43;;;;;;;9.23;3.77;;;34.30;1.00;;;;;;5072904;28;20446;-71
2023/07/14 11:57:17;;;;;;;6.90;2.40;;;33.80;1.00;;;;;;5073660;28;20795;-72
2023/07/14 11:59:57;;;;;;;12.07;3.73;;;34.00;1.00;;;;;;5073262;28;20413;-71
2023/07/14 12:02:30;;;;;;;7.50;2.80;;;34.50;1.00;;;;;;5072900;28;20899;-70
2023/07/14 12:05:23;;;;;;;7.83;2.73;;;33.50;1.00;;;;;;5073432;28;20474;-71
2023/07/14 12:08:11;;;;;;;7.20;2.70;;;33.10;1.00;;;;;;5073166;28;20426;-70
2023/07/14 12:10:45;;;;;;;7.83;2.73;;;33.00;1.00;;;;;;5073248;28;21007;-71
2023/07/14 12:13:25;;;;;;;7.30;2.60;;;32.20;1.00;;;;;;5072733;28;20455;-71
2023/07/14 12:16:13;;;;;;;6.50;3.00;;;32.20;1.00;;;;;;5073701;28;20462;-68
2023/07/14 12:18:59;;;;;;;6.23;2.80;;;31.60;1.00;;;;;;5073227;28;20920;-68
2023/07/14 12:21:45;;;;;;;6.43;2.70;;;31.70;1.00;;;;;;5073461;28;20438;-69
2023/07/14 12:24:16;;;;;;;6.13;2.70;;;31.70;1.00;;;;;;5072583;28;20975;-68
2023/07/14 12:26:50;;;;;;;5.70;2.37;;;31.20;1.00;;;;;;5073098;28;20914;-67
2023/07/14 12:29:20;;;;;;;10.33;3.20;;;32.10;1.00;;;;;;5073293;28;20435;-68
2023/07/14 12:31:51;;;;;;;8.50;2.90;;;32.60;1.00;;;;;;5073083;28;20516;-68
2023/07/14 12:34:20;;;;;;;7.20;2.83;;;33.10;1.00;;;;;;5072671;28;20520;-68
2023/07/14 12:36:48;;;;;;;7.17;2.47;;;33.20;1.00;;;;;;5072922;28;20437;-68
2023/07/14 12:39:16;;;;;;;8.10;3.00;;;33.10;1.00;;;;;;5072927;28;20949;-68
2023/07/14 12:41:48;;;;;;;7.73;3.03;;;32.50;1.00;;;;;;5072607;28;20498;-68
2023/07/14 12:44:24;;;;;;;7.33;3.00;;;31.80;1.00;;;;;;5072398;28;20479;-68
2023/07/14 12:46:52;;;;;;;8.10;3.27;;;31.70;1.00;;;;;;5072910;28;20484;-69
2023/07/14 12:49:27;;;;;;;7.10;2.73;;;32.30;1.00;;;;;;5073157;28;20476;-68
2023/07/14 12:51:56;;;;;;;5.87;2.73;;;33.10;1.00;;;;;;5073451;28;20444;-68
2023/07/14 12:54:26;;;;;;;10.07;2.70;;;33.30;1.00;;;;;;5072271;28;20455;-68
2023/07/14 12:56:55;;;;;;;7.50;2.67;;;33.30;1.00;;;;;;5072790;28;20980;-68